Time;durP1;ratioP1;P1;durP2;ratioP2;P2;SDS_P1;SDS_P2;PMS_P1;PMS_P2;Temp;Humidity;BMP_temperature;BMP_pressure;BME280_temperature;BME280_humidity;BME280_pressure;Samples;Min_cycle;Max_cycle;Signal;HPM_P1;HPM_P2
2023/03/23 00:02:13;;;;;;;52.67;31.08;;;;;;;8.06;86.63;95028.31;5069358;28;20411;-72
2023/03/23 00:04:39;;;;;;;39.38;25.88;;;;;;;8.03;86.07;95023.34;5070324;28;20738;-75
2023/03/23 00:07:07;;;;;;;39.00;26.75;;;;;;;8.07;85.66;95018.16;5069981;28;20348;-73
2023/03/23 00:09:40;;;;;;;35.28;25.35;;;;;;;8.08;85.35;95014.78;5069124;28;20213;-74
2023/03/23 00:12:07;;;;;;;41.15;26.60;;;;;;;8.07;85.22;95015.63;5070416;28;20314;-73
2023/03/23 00:14:40;;;;;;;37.67;25.80;;;;;;;7.99;85.75;95012.47;5070273;28;20297;-74
2023/03/23 00:17:09;;;;;;;38.17;26.27;;;;;;;7.90;86.32;95017.75;5069944;28;20233;-73
2023/03/23 00:19:44;;;;;;;32.78;23.73;;;;;;;7.96;85.48;95011.69;5070232;28;20293;-74
2023/03/23 00:22:13;;;;;;;36.55;24.25;;;;;;;7.93;85.42;95020.19;5069454;28;20221;-78
2023/03/23 00:24:40;;;;;;;33.70;23.27;;;;;;;7.92;86.04;95025.31;5066684;28;20658;-73
2023/03/23 00:27:08;;;;;;;37.85;23.95;;;;;;;7.90;84.77;95025.34;5070595;28;21086;-75
2023/03/23 00:29:35;;;;;;;36.97;22.15;;;;;;;7.91;85.45;95021.94;5070645;28;20213;-74
2023/03/23 00:32:02;;;;;;;34.45;23.55;;;;;;;7.81;85.23;95026.38;5070532;28;20217;-74
2023/03/23 00:34:32;;;;;;;41.38;22.80;;;;;;;7.71;85.76;95036.75;5069162;28;20589;-73
2023/03/23 00:36:59;;;;;;;31.90;22.42;;;;;;;7.82;85.24;95029.75;5069987;28;20218;-74
2023/03/23 00:39:29;;;;;;;37.03;22.25;;;;;;;7.59;86.07;95021.84;5068828;28;20294;-74
2023/03/23 00:42:00;;;;;;;34.10;22.85;;;;;;;7.67;86.29;95040.22;5070211;28;20225;-74
2023/03/23 00:44:28;;;;;;;29.20;21.25;;;;;;;7.57;85.66;95039.59;5070999;28;20221;-76
2023/03/23 00:46:56;;;;;;;34.20;22.83;;;;;;;7.62;86.09;95042.03;5069397;28;20630;-75
2023/03/23 00:49:25;;;;;;;39.83;24.13;;;;;;;7.62;86.17;95031.91;5069053;28;20205;-73
2023/03/23 00:51:52;;;;;;;34.80;23.75;;;;;;;7.70;86.00;95042.66;5068789;28;20204;-75
2023/03/23 00:54:19;;;;;;;31.60;22.92;;;;;;;7.70;86.62;95045.19;5069485;28;20293;-70
2023/03/23 00:56:47;;;;;;;35.17;22.98;;;;;;;7.73;86.55;95042.59;5070314;28;20297;-75
2023/03/23 00:59:14;;;;;;;33.53;22.80;;;;;;;7.74;86.14;95052.69;5070516;28;20388;-74
2023/03/23 01:01:41;;;;;;;39.35;26.13;;;;;;;7.84;85.97;95043.19;5069255;28;20320;-73
2023/03/23 01:04:11;;;;;;;41.45;27.58;;;;;;;7.97;86.92;95044.56;5070923;28;20285;-76
2023/03/23 01:06:40;;;;;;;44.72;27.05;;;;;;;7.98;87.85;95048.75;5068694;28;20210;-74
2023/03/23 01:09:08;;;;;;;46.20;27.60;;;;;;;8.01;87.86;95056.28;5069760;28;20233;-73
2023/03/23 01:11:35;;;;;;;45.65;26.85;;;;;;;7.89;88.02;95051.53;5069572;28;20800;-75
2023/03/23 01:14:03;;;;;;;42.88;27.70;;;;;;;7.89;88.48;95051.53;5070362;28;20730;-72
2023/03/23 01:16:30;;;;;;;40.45;27.65;;;;;;;7.78;88.76;95043.34;5068734;28;20226;-72
2023/03/23 01:18:56;;;;;;;37.90;26.77;;;;;;;7.77;89.09;95054.31;5068677;28;20221;-77
2023/03/23 01:21:24;;;;;;;40.90;24.40;;;;;;;7.67;88.89;95048.63;5066689;28;20234;-76
2023/03/23 01:23:51;;;;;;;40.83;24.45;;;;;;;7.62;88.77;95042.03;5069542;28;20209;-74
2023/03/23 01:26:21;;;;;;;35.72;24.02;;;;;;;7.72;88.59;95038.41;5069140;28;20308;-73
2023/03/23 01:28:48;;;;;;;37.45;24.77;;;;;;;7.72;88.95;95035.88;5069189;28;20290;-74
2023/03/23 01:31:18;;;;;;;38.30;25.83;;;;;;;7.76;88.52;95038.31;5069208;28;20288;-74
2023/03/23 01:33:45;;;;;;;39.50;27.80;;;;;;;7.72;87.63;95040.94;5070175;28;20321;-76
2023/03/23 01:36:14;;;;;;;39.60;26.48;;;;;;;7.68;88.47;95039.34;5067886;28;20392;-74
2023/03/23 01:38:43;;;;;;;40.67;27.20;;;;;;;7.78;87.88;95033.22;5069152;28;20860;-75
2023/03/23 01:41:10;;;;;;;48.72;28.45;;;;;;;7.79;87.73;95037.41;5068648;28;20308;-75
2023/03/23 01:43:37;;;;;;;48.25;28.60;;;;;;;7.76;87.63;95037.47;5067846;28;20293;-75
2023/03/23 01:46:04;;;;;;;47.60;29.73;;;;;;;7.80;87.29;95034.84;5067752;28;20205;-73
2023/03/23 01:48:35;;;;;;;46.25;27.73;;;;;;;7.77;87.70;95019.72;5067311;28;20355;-76
2023/03/23 01:51:07;;;;;;;46.08;29.15;;;;;;;7.84;87.49;95030.53;5069706;28;20293;-74
2023/03/23 01:53:38;;;;;;;45.58;28.60;;;;;;;7.82;87.26;95022.16;5065311;28;20232;-73
2023/03/23 01:56:07;;;;;;;49.85;27.88;;;;;;;7.82;87.19;95024.69;5068357;28;20319;-74
2023/03/23 01:58:37;;;;;;;48.38;28.38;;;;;;;7.77;87.22;95023.97;5066442;28;20758;-74
2023/03/23 02:01:07;;;;;;;46.47;28.27;;;;;;;7.69;87.12;95018.22;5066845;28;20760;-76
2023/03/23 02:03:38;;;;;;;48.53;28.27;;;;;;;7.73;87.34;95020.66;5066600;28;20281;-75
2023/03/23 02:06:05;;;;;;;49.70;28.35;;;;;;;7.73;87.46;95024.88;5066945;28;20212;-74
2023/03/23 02:08:33;;;;;;;49.70;29.33;;;;;;;7.66;88.05;95019.16;5069094;28;20209;-74
2023/03/23 02:11:01;;;;;;;54.13;28.15;;;;;;;7.82;87.52;95027.22;5068943;28;20288;-75
2023/03/23 02:13:28;;;;;;;40.50;26.17;;;;;;;7.83;87.06;95021.28;5066876;28;20382;-74
2023/03/23 02:16:04;;;;;;;46.92;29.10;;;;;;;7.87;87.78;95027.94;5067680;28;20224;-75
2023/03/23 02:18:48;;;;;;;54.67;29.20;;;;;;;7.80;87.92;95032.31;5068310;28;20206;-75
2023/03/23 02:21:43;;;;;;;44.72;27.88;;;;;;;7.88;87.65;95023.72;5069160;28;20236;-76
2023/03/23 02:24:33;;;;;;;43.25;26.13;;;;;;;7.77;87.95;95018.91;5068396;28;20648;-78
2023/03/23 02:27:02;;;;;;;37.47;25.20;;;;;;;7.73;87.93;95027.41;5068066;28;21451;-75
2023/03/23 02:29:56;;;;;;;42.42;24.30;;;;;;;7.59;88.29;95026.91;5068616;28;20288;-76
2023/03/23 02:32:48;;;;;;;40.47;26.75;;;;;;;7.66;88.86;95020.88;5069091;28;20255;-74
2023/03/23 02:35:21;;;;;;;39.67;25.73;;;;;;;7.51;88.76;95020.31;5065864;28;20293;-74
2023/03/23 02:37:52;;;;;;;40.67;26.85;;;;;;;7.39;89.55;95023.13;5068508;28;20651;-75
2023/03/23 02:40:24;;;;;;;42.75;25.65;;;;;;;7.45;88.53;95025.50;5068577;28;20233;-75
2023/03/23 02:42:55;;;;;;;38.33;25.05;;;;;;;7.30;88.40;95030.06;5068693;28;20236;-74
2023/03/23 02:45:25;;;;;;;46.55;26.58;;;;;;;7.21;89.49;95030.25;5069094;28;20233;-75
2023/03/23 02:47:54;;;;;;;45.30;27.05;;;;;;;7.15;89.96;95028.72;5071495;28;20202;-74
2023/03/23 02:50:25;;;;;;;44.10;27.38;;;;;;;7.20;89.51;95042.06;5073820;28;21925;-75
2023/03/23 02:52:55;;;;;;;42.45;27.08;;;;;;;7.18;89.15;95040.47;5074156;28;20264;-74
2023/03/23 02:55:24;;;;;;;40.63;24.55;;;;;;;6.93;90.41;95042.66;5071532;28;20659;-74
2023/03/23 02:57:52;;;;;;;43.83;26.73;;;;;;;6.84;90.21;95048.72;5072309;28;20202;-75
2023/03/23 03:00:20;;;;;;;42.67;26.88;;;;;;;6.80;91.13;95047.09;5071920;28;20336;-75
2023/03/23 03:02:52;;;;;;;48.33;25.20;;;;;;;6.77;90.96;95050.50;5071297;28;20340;-75
2023/03/23 03:05:32;;;;;;;39.25;25.48;;;;;;;6.81;91.18;95057.19;5071417;28;20202;-76
2023/03/23 03:08:09;;;;;;;35.75;23.48;;;;;;;6.77;90.89;95048.00;5070877;28;20655;-74
2023/03/23 03:10:43;;;;;;;39.95;24.58;;;;;;;6.75;91.68;95047.19;5071773;28;20292;-74
2023/03/23 03:13:16;;;;;;;38.65;22.95;;;;;;;6.86;91.23;95073.94;5071720;28;20198;-75
2023/03/23 03:15:49;;;;;;;38.67;24.67;;;;;;;6.90;91.15;95065.44;5071280;28;20227;-75
2023/03/23 03:18:22;;;;;;;37.35;23.63;;;;;;;6.99;90.08;95075.34;5070867;28;20206;-76
2023/03/23 03:20:54;;;;;;;38.47;23.48;;;;;;;7.02;90.31;95060.97;5071016;28;20300;-72
2023/03/23 03:23:23;;;;;;;44.17;23.80;;;;;;;7.11;90.36;95070.06;5071194;28;20292;-76
2023/03/23 03:25:53;;;;;;;41.03;23.30;;;;;;;7.12;89.99;95069.22;5071236;28;20782;-74
2023/03/23 03:28:22;;;;;;;40.42;24.13;;;;;;;7.14;89.83;95059.91;5071840;28;20652;-75
2023/03/23 03:30:54;;;;;;;37.75;24.83;;;;;;;7.16;90.47;95063.25;5070467;28;20206;-75
2023/03/23 03:33:25;;;;;;;37.55;24.05;;;;;;;7.19;89.47;95068.19;5069526;28;20225;-76
2023/03/23 03:35:55;;;;;;;37.50;23.90;;;;;;;7.13;89.31;95074.25;5072055;28;20694;-75
2023/03/23 03:38:22;;;;;;;42.92;23.95;;;;;;;7.12;88.90;95081.84;5072111;28;20201;-74
2023/03/23 03:40:49;;;;;;;39.33;25.45;;;;;;;7.14;88.76;95078.44;5070619;28;20283;-74
2023/03/23 03:43:15;;;;;;;36.72;24.17;;;;;;;7.21;88.86;95076.59;5071573;28;20679;-76
2023/03/23 03:45:42;;;;;;;37.75;24.85;;;;;;;7.32;88.46;95079.75;5072310;28;20269;-77
2023/03/23 03:48:09;;;;;;;37.85;22.58;;;;;;;7.26;88.26;95079.84;5071775;28;20213;-74
2023/03/23 03:50:36;;;;;;;40.80;24.42;;;;;;;7.22;87.81;95079.94;5071205;28;20209;-75
2023/03/23 03:53:05;;;;;;;34.80;20.20;;;;;;;7.22;87.44;95065.63;5071650;28;20225;-74
2023/03/23 03:55:35;;;;;;;27.17;18.35;;;;;;;7.27;87.63;95075.63;5070369;28;20205;-75
2023/03/23 03:58:02;;;;;;;34.08;22.15;;;;;;;7.23;88.51;95068.97;5070951;28;20206;-75
2023/03/23 04:00:29;;;;;;;33.92;21.85;;;;;;;7.18;88.40;95069.06;5071157;28;20292;-75
2023/03/23 04:02:56;;;;;;;32.05;21.83;;;;;;;7.15;88.21;95069.16;5070961;28;20315;-75
2023/03/23 04:05:24;;;;;;;36.83;23.55;;;;;;;7.07;87.46;95068.47;5072309;28;20274;-75
2023/03/23 04:07:52;;;;;;;34.47;21.88;;;;;;;6.89;88.00;95063.78;5073277;28;20209;-75
2023/03/23 04:10:22;;;;;;;35.22;22.20;;;;;;;6.85;88.52;95072.28;5071333;28;20304;-75
2023/03/23 04:12:48;;;;;;;33.60;21.92;;;;;;;6.75;87.80;95067.38;5072395;28;20198;-76
2023/03/23 04:15:15;;;;;;;33.92;22.30;;;;;;;6.80;88.71;95075.72;5072040;28;20229;-75
2023/03/23 04:17:42;;;;;;;34.63;23.02;;;;;;;6.77;87.92;95080.81;5071180;28;20214;-76
2023/03/23 04:20:15;;;;;;;40.63;24.58;;;;;;;6.71;88.32;95080.94;5069966;28;20292;-75
2023/03/23 04:22:43;;;;;;;36.50;24.20;;;;;;;6.62;88.43;95065.97;5070492;28;20221;-74
2023/03/23 04:25:12;;;;;;;33.47;22.00;;;;;;;6.75;88.06;95087.59;5070941;28;20206;-74
2023/03/23 04:27:43;;;;;;;34.35;23.27;;;;;;;6.81;87.87;95077.38;5070831;28;20218;-75
2023/03/23 04:30:11;;;;;;;34.97;23.58;;;;;;;6.77;88.36;95075.78;5068794;28;20725;-76
2023/03/23 04:32:41;;;;;;;37.80;24.15;;;;;;;6.77;87.63;95075.78;5069537;28;20209;-74
2023/03/23 04:35:09;;;;;;;36.72;24.05;;;;;;;6.71;87.51;95073.34;5070794;28;20198;-76
2023/03/23 04:37:36;;;;;;;36.53;22.70;;;;;;;6.76;87.32;95084.22;5070519;28;20661;-75
2023/03/23 04:40:11;;;;;;;34.22;23.05;;;;;;;6.78;87.36;95081.66;5070919;28;20285;-74
2023/03/23 04:42:40;;;;;;;37.20;24.48;;;;;;;6.81;87.71;95082.44;5069709;28;20243;-76
2023/03/23 04:45:09;;;;;;;42.05;23.27;;;;;;;6.86;87.02;95084.03;5070528;28;20209;-75
2023/03/23 04:47:39;;;;;;;36.33;22.80;;;;;;;6.83;86.94;95087.47;5070583;28;20209;-77
2023/03/23 04:50:08;;;;;;;34.25;22.63;;;;;;;6.91;86.55;95082.28;5070336;28;20206;-76
2023/03/23 04:52:37;;;;;;;33.45;21.52;;;;;;;6.97;86.65;95085.50;5070169;28;20243;-74
2023/03/23 04:55:05;;;;;;;32.28;22.55;;;;;;;6.95;87.37;95078.78;5070487;28;20202;-76
2023/03/23 04:57:32;;;;;;;37.60;24.20;;;;;;;7.12;86.54;95094.47;5070231;28;20234;-77
2023/03/23 05:00:00;;;;;;;37.85;23.67;;;;;;;7.10;86.27;95078.53;5069047;28;20234;-74
2023/03/23 05:02:29;;;;;;;33.47;23.23;;;;;;;7.33;85.61;95096.56;5069376;28;20789;-76
2023/03/23 05:04:56;;;;;;;36.30;23.33;;;;;;;7.33;84.58;95096.56;5070439;28;20296;-75
2023/03/23 05:07:23;;;;;;;36.97;23.25;;;;;;;7.46;84.03;95103.03;5069995;28;20339;-78
2023/03/23 05:09:50;;;;;;;34.17;23.00;;;;;;;7.58;83.85;95108.72;5070205;28;20288;-76
2023/03/23 05:12:17;;;;;;;35.83;22.45;;;;;;;7.75;82.08;95106.63;5069744;28;20902;-76
2023/03/23 05:14:44;;;;;;;40.08;25.63;;;;;;;7.74;81.70;95107.50;5069869;28;20216;-76
2023/03/23 05:17:16;;;;;;;43.67;28.63;;;;;;;7.72;82.57;95109.22;5069232;28;20707;-76
2023/03/23 05:19:43;;;;;;;42.20;26.67;;;;;;;7.85;82.04;95105.56;5069569;28;20216;-75
2023/03/23 05:22:12;;;;;;;37.83;24.00;;;;;;;8.03;81.92;95102.63;5070530;28;20611;-75
2023/03/23 05:24:39;;;;;;;40.42;24.08;;;;;;;8.24;79.91;95110.56;5067976;28;20673;-74
2023/03/23 05:27:07;;;;;;;40.28;24.73;;;;;;;8.30;79.69;95112.97;5069462;28;20298;-74
2023/03/23 05:29:35;;;;;;;42.00;24.95;;;;;;;8.42;79.32;95111.00;5069821;28;20271;-75
2023/03/23 05:32:03;;;;;;;39.17;24.90;;;;;;;8.50;78.13;95115.88;5070158;28;20209;-75
2023/03/23 05:34:32;;;;;;;38.30;24.67;;;;;;;8.56;77.47;95123.34;5070359;28;20208;-74
2023/03/23 05:37:00;;;;;;;45.30;29.17;;;;;;;8.63;77.93;95119.78;5069918;28;20209;-75
2023/03/23 05:39:27;;;;;;;50.00;30.73;;;;;;;8.80;77.76;95125.25;5068890;28;20235;-76
2023/03/23 05:41:54;;;;;;;40.53;27.85;;;;;;;8.99;76.70;95125.59;5069151;28;20344;-75
2023/03/23 05:44:20;;;;;;;51.42;29.10;;;;;;;9.07;77.08;95127.94;5068815;28;20266;-75
2023/03/23 05:46:47;;;;;;;51.88;32.45;;;;;;;9.27;76.40;95128.22;5067919;28;20254;-76
2023/03/23 05:49:15;;;;;;;43.90;29.27;;;;;;;9.46;75.10;95126.81;5069660;28;20738;-75
2023/03/23 05:51:43;;;;;;;43.35;28.48;;;;;;;9.78;74.82;95138.59;5068506;28;20292;-76
2023/03/23 05:54:10;;;;;;;44.47;29.13;;;;;;;10.01;73.62;95140.47;5068280;28;20230;-75
2023/03/23 05:56:37;;;;;;;40.20;27.63;;;;;;;10.32;72.51;95142.09;5069155;28;20296;-75
2023/03/23 05:59:04;;;;;;;45.53;29.40;;;;;;;10.77;71.27;95139.78;5068485;28;20336;-78
2023/03/23 06:01:31;;;;;;;43.13;26.65;;;;;;;11.32;69.27;95133.66;5069592;28;20350;-77
2023/03/23 06:03:58;;;;;;;37.58;26.85;;;;;;;12.38;66.63;95130.53;5070435;28;20706;-78
2023/03/23 06:06:25;;;;;;;37.30;25.00;;;;;;;13.46;61.95;95129.44;5070428;28;20611;-75
2023/03/23 06:08:53;;;;;;;36.30;22.90;;;;;;;13.95;60.71;95132.38;5069742;28;20280;-75
2023/03/23 06:11:19;;;;;;;37.38;24.35;;;;;;;13.94;60.37;95135.81;5069546;28;20297;-76
2023/03/23 06:13:46;;;;;;;41.80;24.98;;;;;;;14.16;59.91;95133.94;5068879;28;20356;-75
2023/03/23 06:16:13;;;;;;;31.92;21.77;;;;;;;14.47;58.10;95135.09;5069892;28;20793;-77
2023/03/23 06:18:40;;;;;;;34.95;22.00;;;;;;;15.12;56.73;95129.31;5069398;28;20289;-76
2023/03/23 06:21:07;;;;;;;31.67;22.13;;;;;;;15.17;56.20;95142.72;5068873;28;20202;-77
2023/03/23 06:23:34;;;;;;;30.15;23.65;;;;;;;14.86;57.23;95135.72;5072489;28;20793;-75
2023/03/23 06:26:06;;;;;;;29.33;21.45;;;;;;;14.65;57.55;95129.09;5072386;28;20327;-76
2023/03/23 06:28:34;;;;;;;27.05;21.52;;;;;;;15.34;56.64;95126.50;5072955;28;20237;-77
2023/03/23 06:31:01;;;;;;;31.15;21.35;;;;;;;16.26;53.55;95125.88;5073324;28;20208;-77
2023/03/23 06:33:28;;;;;;;30.63;22.55;;;;;;;16.22;53.34;95126.13;5074185;28;20750;-76
2023/03/23 06:35:55;;;;;;;35.28;21.05;;;;;;;16.15;53.73;95132.50;5073669;28;20270;-76
2023/03/23 06:38:22;;;;;;;32.13;22.40;;;;;;;16.49;53.53;95131.50;5072086;28;20233;-76
2023/03/23 06:40:49;;;;;;;31.83;22.80;;;;;;;17.91;50.81;95124.06;5072987;28;20266;-76
2023/03/23 06:43:17;;;;;;;28.38;20.98;;;;;;;19.42;47.05;95130.63;5073520;28;20226;-76
2023/03/23 06:45:44;;;;;;;27.15;21.73;;;;;;;20.81;44.68;95134.66;5074262;28;20263;-78
2023/03/23 06:48:10;;;;;;;23.73;19.77;;;;;;;22.80;40.66;95117.69;5073117;28;20285;-77
2023/03/23 06:50:37;;;;;;;24.55;20.58;;;;;;;25.14;36.76;95109.78;5070863;28;20320;-80
2023/03/23 06:53:04;;;;;;;30.17;21.88;;;;;;;27.21;32.54;95121.44;5072064;28;20256;-77
2023/03/23 06:55:30;;;;;;;22.02;19.75;;;;;;;28.60;29.51;95118.59;5072039;28;20217;-75
2023/03/23 06:57:58;;;;;;;22.10;18.80;;;;;;;29.24;28.34;95122.28;5072976;28;20658;-76
2023/03/23 07:00:27;;;;;;;22.15;19.85;;;;;;;29.19;28.16;95122.81;5070917;28;20328;-79
2023/03/23 07:02:53;;;;;;;23.67;18.52;;;;;;;28.30;29.46;95117.38;5072516;28;20658;-76
2023/03/23 07:05:20;;;;;;;20.58;18.38;;;;;;;28.59;28.40;95119.59;5071893;28;20280;-76
2023/03/23 07:07:47;;;;;;;18.40;16.60;;;;;;;28.68;28.78;95118.63;5072748;28;20296;-76
2023/03/23 07:10:14;;;;;;;19.63;17.75;;;;;;;29.49;27.75;95116.09;5071312;28;20335;-77
2023/03/23 07:12:41;;;;;;;19.55;17.65;;;;;;;29.78;26.79;95113.75;5072091;28;21723;-76
2023/03/23 07:15:10;;;;;;;22.35;18.83;;;;;;;29.26;27.38;95120.31;5072246;28;20209;-78
2023/03/23 07:17:39;;;;;;;21.15;18.95;;;;;;;29.10;27.85;95114.13;5072434;28;20324;-76
2023/03/23 07:20:07;;;;;;;20.38;18.33;;;;;;;29.94;27.11;95118.13;5072834;28;20241;-76
2023/03/23 07:22:34;;;;;;;22.83;19.73;;;;;;;30.57;26.11;95121.69;5071580;28;20378;-77
2023/03/23 07:25:01;;;;;;;22.95;20.55;;;;;;;31.65;25.13;95114.50;5072528;28;20341;-73
2023/03/23 07:27:28;;;;;;;22.05;19.88;;;;;;;32.05;24.13;95121.97;5071294;28;20228;-78
2023/03/23 07:29:55;;;;;;;21.33;19.30;;;;;;;32.96;23.02;95115.41;5073621;28;20279;-78
2023/03/23 07:32:22;;;;;;;22.60;19.08;;;;;;;34.02;22.26;95117.13;5074917;28;20876;-77
2023/03/23 07:34:50;;;;;;;22.25;19.98;;;;;;;35.16;20.85;95119.16;5073520;28;20759;-76
2023/03/23 07:37:17;;;;;;;20.48;18.48;;;;;;;35.52;20.91;95119.66;5073316;28;20229;-79
2023/03/23 07:39:43;;;;;;;22.45;19.55;;;;;;;35.71;20.14;95113.53;5074083;28;20768;-79
2023/03/23 07:42:10;;;;;;;21.38;19.25;;;;;;;36.25;19.80;95116.94;5072668;28;20291;-78
2023/03/23 07:44:38;;;;;;;24.35;20.05;;;;;;;36.38;19.84;95115.03;5072654;28;20602;-78
2023/03/23 07:47:05;;;;;;;24.25;21.85;;;;;;;36.81;19.59;95125.09;5074523;28;20247;-75
2023/03/23 07:49:32;;;;;;;24.73;21.88;;;;;;;37.84;18.48;95115.00;5072466;28;20764;-81
2023/03/23 07:52:01;;;;;;;25.17;21.02;;;;;;;37.37;18.83;95111.09;5071383;28;20214;-78
2023/03/23 07:54:28;;;;;;;22.85;20.65;;;;;;;37.66;18.49;95110.44;5072116;28;20197;-78
2023/03/23 07:56:55;;;;;;;22.75;20.52;;;;;;;38.47;18.41;95109.41;5070915;28;20336;-78
2023/03/23 07:59:21;;;;;;;24.83;22.20;;;;;;;38.55;17.98;95100.34;5070714;28;20206;-78
2023/03/23 08:01:48;;;;;;;22.15;19.42;;;;;;;39.00;17.12;95120.22;5070443;28;20233;-76
2023/03/23 08:04:15;;;;;;;22.77;19.17;;;;;;;38.23;17.53;95116.44;5070152;28;20362;-78
2023/03/23 08:06:42;;;;;;;25.77;19.20;;;;;;;37.22;18.10;95113.22;5070113;28;20259;-77
2023/03/23 08:09:11;;;;;;;17.98;16.38;;;;;;;37.10;18.37;95113.91;5071634;28;20279;-75
2023/03/23 08:11:39;;;;;;;18.05;16.35;;;;;;;36.68;18.72;95115.31;5071157;28;20201;-76
2023/03/23 08:14:06;;;;;;;19.00;16.60;;;;;;;36.56;18.79;95117.03;5071964;28;21401;-78
2023/03/23 08:16:33;;;;;;;17.92;16.15;;;;;;;36.60;18.65;95122.72;5070995;28;20206;-78
2023/03/23 08:19:00;;;;;;;26.70;18.52;;;;;;;34.43;20.30;95122.41;5070824;28;20205;-75
2023/03/23 08:21:27;;;;;;;26.17;19.23;;;;;;;33.27;21.31;95119.59;5071734;28;20282;-79
2023/03/23 08:23:54;;;;;;;24.75;17.88;;;;;;;34.03;20.49;95123.19;5073162;28;20275;-77
2023/03/23 08:26:23;;;;;;;23.83;18.70;;;;;;;35.16;19.66;95116.53;5069696;28;20260;-76
2023/03/23 08:28:49;;;;;;;21.08;18.45;;;;;;;34.76;20.25;95119.06;5071696;28;20210;-77
2023/03/23 08:31:16;;;;;;;19.88;17.20;;;;;;;34.47;20.19;95114.91;5070628;28;20205;-76
2023/03/23 08:33:43;;;;;;;23.67;18.05;;;;;;;34.19;20.56;95114.97;5071567;28;20208;-77
2023/03/23 08:36:10;;;;;;;23.17;16.77;;;;;;;35.76;19.54;95116.38;5072656;28;20277;-79
2023/03/23 08:38:37;;;;;;;16.92;15.10;;;;;;;36.79;18.23;95105.94;5072322;28;20293;-77
2023/03/23 08:41:05;;;;;;;11.52;10.63;;;;;;;36.25;17.63;95112.44;5072061;28;20244;-78
2023/03/23 08:43:34;;;;;;;14.40;11.57;;;;;;;36.13;18.22;95120.19;5071728;28;20316;-78
2023/03/23 08:46:01;;;;;;;13.82;12.32;;;;;;;35.52;18.53;95114.34;5071724;28;20304;-76
2023/03/23 08:48:28;;;;;;;15.60;12.00;;;;;;;34.30;18.64;95119.72;5070053;28;20679;-77
2023/03/23 08:50:54;;;;;;;12.73;11.40;;;;;;;32.80;20.70;95115.66;5071224;28;20374;-76
2023/03/23 08:53:21;;;;;;;9.38;8.48;;;;;;;33.01;20.02;95106.94;5069912;28;20537;-74
2023/03/23 08:55:48;;;;;;;6.28;5.78;;;;;;;31.31;19.52;95117.59;5070037;28;20228;-76
2023/03/23 08:58:15;;;;;;;6.43;6.03;;;;;;;30.10;21.84;95112.88;5069586;28;20619;-75
2023/03/23 09:00:43;;;;;;;7.88;7.32;;;;;;;29.89;22.14;95114.38;5069823;28;20733;-78
2023/03/23 09:03:10;;;;;;;8.65;8.05;;;;;;;29.46;22.67;95119.03;5069724;28;21925;-77
2023/03/23 09:05:39;;;;;;;9.38;8.57;;;;;;;29.25;22.60;95109.03;5069874;28;20340;-78
2023/03/23 09:08:05;;;;;;;11.07;8.25;;;;;;;29.99;22.83;95115.03;5069381;28;20205;-77
2023/03/23 09:10:32;;;;;;;7.35;6.65;;;;;;;28.37;22.72;95124.44;5069568;28;20242;-78
2023/03/23 09:12:59;;;;;;;9.23;8.48;;;;;;;25.93;26.27;95112.88;5069965;28;21784;-78
2023/03/23 09:15:26;;;;;;;14.40;9.63;;;;;;;24.19;28.32;95118.13;5070572;28;20296;-78
2023/03/23 09:17:56;;;;;;;9.57;8.77;;;;;;;23.74;29.94;95122.88;5069997;28;20205;-77
2023/03/23 09:20:25;;;;;;;11.85;8.73;;;;;;;21.54;33.06;95124.06;5069172;28;20202;-76
2023/03/23 09:22:54;;;;;;;8.60;7.97;;;;;;;19.51;36.81;95130.03;5069039;28;20349;-74
2023/03/23 09:25:24;;;;;;;10.80;8.88;;;;;;;18.46;40.08;95133.47;5068906;28;20206;-76
2023/03/23 09:27:56;;;;;;;9.50;8.32;;;;;;;17.47;42.34;95113.88;5067612;28;20229;-76
2023/03/23 09:30:25;;;;;;;11.05;9.77;;;;;;;17.17;43.68;95126.75;5067666;28;20206;-78
2023/03/23 09:32:51;;;;;;;9.48;8.52;;;;;;;17.11;43.61;95119.41;5067537;28;20224;-77
2023/03/23 09:35:22;;;;;;;13.05;9.35;;;;;;;16.90;44.03;95111.22;5068379;28;20298;-76
2023/03/23 09:37:51;;;;;;;9.65;8.75;;;;;;;17.04;43.89;95118.13;5067120;28;20210;-75
2023/03/23 09:40:21;;;;;;;10.95;9.20;;;;;;;16.90;44.94;95121.47;5067330;28;20215;-77
2023/03/23 09:43:07;;;;;;;9.38;8.15;;;;;;;17.20;44.31;95106.03;5068471;28;20202;-77
2023/03/23 09:45:42;;;;;;;10.85;8.27;;;;;;;17.32;42.82;95107.91;5068089;28;21053;-75
2023/03/23 09:48:30;;;;;;;9.18;7.75;;;;;;;16.65;44.40;95106.66;5070738;28;20209;-75
2023/03/23 09:51:04;;;;;;;8.65;7.95;;;;;;;16.35;45.61;95119.41;5069315;28;20230;-74
2023/03/23 09:53:37;;;;;;;25.05;8.05;;;;;;;16.39;45.87;95114.94;5069457;28;20201;-76
2023/03/23 09:56:12;;;;;;;8.23;7.53;;;;;;;16.41;46.42;95102.88;5068397;28;20292;-75
2023/03/23 09:58:46;;;;;;;9.35;8.55;;;;;;;16.17;45.86;95100.75;5068590;28;20213;-74
2023/03/23 10:01:17;;;;;;;8.00;7.40;;;;;;;16.33;46.05;95111.00;5070092;28;20322;-78
2023/03/23 10:03:47;;;;;;;8.73;7.90;;;;;;;16.37;45.77;95109.06;5072864;22;20332;-78
2023/03/23 10:06:18;;;;;;;8.60;7.68;;;;;;;16.53;45.81;95102.19;5019339;28;20212;-78
2023/03/23 10:08:46;;;;;;;9.00;8.20;;;;;;;16.67;44.69;95103.09;5019514;28;20197;-77
2023/03/23 10:11:21;;;;;;;8.23;7.53;;;;;;;16.57;45.21;95098.53;5019007;28;20248;-75
2023/03/23 10:14:09;;;;;;;8.73;7.90;;;;;;;16.58;45.63;95093.28;5019575;28;20293;-80
2023/03/23 10:16:42;;;;;;;7.30;6.70;;;;;;;16.54;45.29;95103.84;5004876;28;20211;-75
2023/03/23 10:19:13;;;;;;;8.25;7.57;;;;;;;16.31;46.02;95100.00;5016421;28;20609;-74
2023/03/23 10:21:46;;;;;;;9.80;7.32;;;;;;;16.07;45.69;95097.03;5017063;28;20199;-73
2023/03/23 10:24:16;;;;;;;10.02;6.95;;;;;;;15.91;46.92;95096.19;5019022;28;20255;-75
2023/03/23 10:26:52;;;;;;;7.63;6.97;;;;;;;16.06;46.60;95097.13;5015605;28;20285;-75
2023/03/23 10:29:24;;;;;;;8.07;7.30;;;;;;;16.20;45.90;95097.19;5007673;28;20253;-74
2023/03/23 10:31:55;;;;;;;8.65;7.85;;;;;;;16.23;46.29;95095.28;5010639;28;20239;-71
2023/03/23 10:34:28;;;;;;;8.70;7.90;;;;;;;16.07;46.50;95099.59;5009344;28;20203;-73
2023/03/23 10:37:06;;;;;;;7.60;6.85;;;;;;;15.73;46.86;95104.88;5009503;28;20286;-74
2023/03/23 10:39:40;;;;;;;8.10;7.43;;;;;;;15.30;48.18;95099.41;5009105;28;20222;-75
2023/03/23 10:42:07;;;;;;;8.65;7.72;;;;;;;15.40;48.49;95103.13;5008817;28;20300;-73
2023/03/23 10:44:35;;;;;;;8.95;8.07;;;;;;;15.73;47.34;95090.34;5008984;28;20227;-75
2023/03/23 10:47:04;;;;;;;11.88;8.05;;;;;;;16.18;46.28;95092.13;5009218;28;20675;-76
2023/03/23 10:49:35;;;;;;;9.35;8.55;;;;;;;16.30;45.98;95076.09;5009127;28;20361;-75
2023/03/23 10:52:11;;;;;;;9.48;8.05;;;;;;;16.42;45.80;95084.00;5008118;28;20786;-77
2023/03/23 10:54:40;;;;;;;12.20;8.93;;;;;;;16.29;46.50;95074.44;5010158;28;20695;-75
2023/03/23 10:57:21;;;;;;;9.43;8.63;;;;;;;16.31;47.35;95090.56;5008333;28;20710;-73
2023/03/23 10:59:48;;;;;;;8.85;8.05;;;;;;;16.25;47.11;95083.22;5008735;28;20207;-74
2023/03/23 11:02:18;;;;;;;10.32;8.45;;;;;;;16.01;47.40;95083.72;5009569;28;20282;-75
2023/03/23 11:04:48;;;;;;;9.35;8.18;;;;;;;16.04;47.36;95079.25;5008228;28;22014;-74
2023/03/23 11:07:28;;;;;;;9.05;8.15;;;;;;;15.83;47.39;95088.13;5009939;28;20203;-75
2023/03/23 11:09:58;;;;;;;7.18;6.57;;;;;;;15.82;47.24;95083.91;5012112;28;20207;-73
2023/03/23 11:12:26;;;;;;;7.82;7.18;;;;;;;15.94;46.72;95078.09;5013549;28;20204;-74
2023/03/23 11:14:52;;;;;;;7.30;6.78;;;;;;;15.96;46.29;95073.72;5012523;28;20203;-75
2023/03/23 11:17:25;;;;;;;7.43;6.80;;;;;;;16.05;46.08;95075.78;5011868;28;20262;-73
2023/03/23 11:19:54;;;;;;;7.30;6.60;;;;;;;16.17;46.38;95062.28;5011806;28;20208;-75
2023/03/23 11:22:26;;;;;;;8.60;6.82;;;;;;;16.63;46.14;95062.25;5012607;28;20207;-74
2023/03/23 11:24:55;;;;;;;7.78;7.07;;;;;;;16.61;45.41;95058.94;5012846;28;20322;-74
2023/03/23 11:27:24;;;;;;;8.23;7.53;;;;;;;16.45;46.39;95055.59;5012550;28;20227;-73
2023/03/23 11:29:53;;;;;;;7.78;7.03;;;;;;;16.11;45.98;95065.19;5013027;28;20203;-74
2023/03/23 11:32:24;;;;;;;7.97;7.38;;;;;;;15.77;46.94;95043.13;5012616;28;20212;-71
2023/03/23 11:34:56;;;;;;;7.28;6.68;;;;;;;15.73;47.97;95051.06;5012319;28;20262;-74